sensor_id;sensor_type;location;lat;lon;timestamp;pressure;altitude;pressure_sealevel;temperature;humidity
15308;BME280;7755;52.208;6.964;2022-11-11T00:00:58;102344.94;;;10.20;100.00
15308;BME280;7755;52.208;6.964;2022-11-11T00:05:19;102359.56;;;10.19;100.00
15308;BME280;7755;52.208;6.964;2022-11-11T00:09:41;102358.75;;;10.19;100.00
15308;BME280;7755;52.208;6.964;2022-11-11T00:14:02;102362.88;;;10.15;100.00
15308;BME280;7755;52.208;6.964;2022-11-11T00:18:23;102375.44;;;10.16;100.00
15308;BME280;7755;52.208;6.964;2022-11-11T00:23:02;102370.59;;;10.11;100.00
15308;BME280;7755;52.208;6.964;2022-11-11T00:27:41;102376.25;;;10.09;100.00
15308;BME280;7755;52.208;6.964;2022-11-11T00:32:03;102381.84;;;10.08;100.00
15308;BME280;7755;52.208;6.964;2022-11-11T00:36:41;102376.41;;;10.08;100.00
15308;BME280;7755;52.208;6.964;2022-11-11T00:41:02;102399.19;;;10.07;100.00
15308;BME280;7755;52.208;6.964;2022-11-11T00:45:24;102410.69;;;10.09;100.00
15308;BME280;7755;52.208;6.964;2022-11-11T00:49:45;102412.97;;;10.05;100.00
15308;BME280;7755;52.208;6.964;2022-11-11T00:54:23;102420.28;;;10.05;100.00
15308;BME280;7755;52.208;6.964;2022-11-11T00:58:43;102409.63;;;10.03;100.00
15308;BME280;7755;52.208;6.964;2022-11-11T01:03:06;102417.13;;;10.01;100.00
15308;BME280;7755;52.208;6.964;2022-11-11T01:07:26;102417.50;;;9.98;100.00
15308;BME280;7755;52.208;6.964;2022-11-11T01:11:47;102413.13;;;9.97;100.00
15308;BME280;7755;52.208;6.964;2022-11-11T01:16:10;102412.28;;;9.97;100.00
15308;BME280;7755;52.208;6.964;2022-11-11T01:20:34;102404.72;;;9.92;100.00
15308;BME280;7755;52.208;6.964;2022-11-11T01:24:55;102408.19;;;9.86;100.00
15308;BME280;7755;52.208;6.964;2022-11-11T01:29:15;102402.13;;;9.84;100.00
15308;BME280;7755;52.208;6.964;2022-11-11T01:33:36;102416.53;;;9.84;100.00
15308;BME280;7755;52.208;6.964;2022-11-11T01:37:59;102416.91;;;9.81;100.00
15308;BME280;7755;52.208;6.964;2022-11-11T01:42:20;102404.56;;;9.79;100.00
15308;BME280;7755;52.208;6.964;2022-11-11T01:46:42;102413.97;;;9.76;100.00
15308;BME280;7755;52.208;6.964;2022-11-11T01:51:12;102403.25;;;9.75;100.00
15308;BME280;7755;52.208;6.964;2022-11-11T01:55:34;102406.94;;;9.67;100.00
15308;BME280;7755;52.208;6.964;2022-11-11T01:59:57;102404.44;;;9.66;100.00
15308;BME280;7755;52.208;6.964;2022-11-11T02:04:20;102416.06;;;9.60;100.00
15308;BME280;7755;52.208;6.964;2022-11-11T02:09:01;102426.72;;;9.61;100.00
15308;BME280;7755;52.208;6.964;2022-11-11T02:13:23;102435.91;;;9.60;100.00
15308;BME280;7755;52.208;6.964;2022-11-11T02:18:02;102424.41;;;9.58;100.00
15308;BME280;7755;52.208;6.964;2022-11-11T02:22:33;102432.28;;;9.53;100.00
15308;BME280;7755;52.208;6.964;2022-11-11T02:26:57;102431.25;;;9.54;100.00
15308;BME280;7755;52.208;6.964;2022-11-11T02:31:25;102413.53;;;9.58;100.00
15308;BME280;7755;52.208;6.964;2022-11-11T02:35:49;102413.34;;;9.60;100.00
15308;BME280;7755;52.208;6.964;2022-11-11T02:40:17;102408.56;;;9.62;100.00
15308;BME280;7755;52.208;6.964;2022-11-11T02:44:39;102411.28;;;9.62;100.00
15308;BME280;7755;52.208;6.964;2022-11-11T02:49:00;102409.03;;;9.65;100.00
15308;BME280;7755;52.208;6.964;2022-11-11T02:53:21;102403.78;;;9.64;100.00
15308;BME280;7755;52.208;6.964;2022-11-11T02:57:41;102412.22;;;9.69;100.00
15308;BME280;7755;52.208;6.964;2022-11-11T03:02:03;102416.41;;;9.71;100.00
15308;BME280;7755;52.208;6.964;2022-11-11T03:06:24;102409.88;;;9.66;100.00
15308;BME280;7755;52.208;6.964;2022-11-11T03:10:45;102409.66;;;9.67;100.00
15308;BME280;7755;52.208;6.964;2022-11-11T03:15:06;102415.78;;;9.69;100.00
15308;BME280;7755;52.208;6.964;2022-11-11T03:19:28;102401.59;;;9.74;100.00
15308;BME280;7755;52.208;6.964;2022-11-11T03:23:49;102400.13;;;9.71;100.00
15308;BME280;7755;52.208;6.964;2022-11-11T03:28:11;102404.72;;;9.71;100.00
15308;BME280;7755;52.208;6.964;2022-11-11T03:32:32;102400.47;;;9.68;100.00
15308;BME280;7755;52.208;6.964;2022-11-11T03:36:54;102399.63;;;9.68;100.00
15308;BME280;7755;52.208;6.964;2022-11-11T03:41:32;102403.88;;;9.70;100.00
15308;BME280;7755;52.208;6.964;2022-11-11T03:45:54;102410.56;;;9.74;100.00
15308;BME280;7755;52.208;6.964;2022-11-11T03:50:15;102410.41;;;9.76;100.00
15308;BME280;7755;52.208;6.964;2022-11-11T03:54:38;102410.78;;;9.73;100.00
15308;BME280;7755;52.208;6.964;2022-11-11T03:58:59;102399.91;;;9.73;100.00
15308;BME280;7755;52.208;6.964;2022-11-11T04:03:19;102392.59;;;9.73;100.00
15308;BME280;7755;52.208;6.964;2022-11-11T04:07:58;102401.78;;;9.72;100.00
15308;BME280;7755;52.208;6.964;2022-11-11T04:12:39;102400.94;;;9.72;100.00
15308;BME280;7755;52.208;6.964;2022-11-11T04:17:14;102419.97;;;9.72;100.00
15308;BME280;7755;52.208;6.964;2022-11-11T04:21:36;102429.16;;;9.71;100.00
15308;BME280;7755;52.208;6.964;2022-11-11T04:26:02;102428.31;;;9.70;100.00
15308;BME280;7755;52.208;6.964;2022-11-11T04:30:24;102424.91;;;9.68;100.00
15308;BME280;7755;52.208;6.964;2022-11-11T04:34:45;102425.97;;;9.67;100.00
15308;BME280;7755;52.208;6.964;2022-11-11T04:39:06;102429.34;;;9.69;100.00
15308;BME280;7755;52.208;6.964;2022-11-11T04:43:45;102430.00;;;9.71;100.00
15308;BME280;7755;52.208;6.964;2022-11-11T04:48:25;102428.75;;;9.74;100.00
15308;BME280;7755;52.208;6.964;2022-11-11T04:52:46;102428.38;;;9.77;100.00
15308;BME280;7755;52.208;6.964;2022-11-11T04:57:07;102439.63;;;9.74;100.00
15308;BME280;7755;52.208;6.964;2022-11-11T05:01:27;102442.72;;;9.71;100.00
15308;BME280;7755;52.208;6.964;2022-11-11T05:06:04;102438.91;;;9.65;100.00
15308;BME280;7755;52.208;6.964;2022-11-11T05:10:42;102442.94;;;9.69;100.00
15308;BME280;7755;52.208;6.964;2022-11-11T05:15:03;102430.00;;;9.71;100.00
15308;BME280;7755;52.208;6.964;2022-11-11T05:19:41;102425.84;;;9.75;100.00
15308;BME280;7755;52.208;6.964;2022-11-11T05:24:21;102420.59;;;9.74;100.00
15308;BME280;7755;52.208;6.964;2022-11-11T05:28:59;102426.22;;;9.72;100.00
15308;BME280;7755;52.208;6.964;2022-11-11T05:33:20;102423.53;;;9.72;100.00
15308;BME280;7755;52.208;6.964;2022-11-11T05:37:41;102428.50;;;9.69;100.00
15308;BME280;7755;52.208;6.964;2022-11-11T05:42:04;102428.31;;;9.70;100.00
15308;BME280;7755;52.208;6.964;2022-11-11T05:46:24;102432.91;;;9.70;100.00
15308;BME280;7755;52.208;6.964;2022-11-11T05:50:45;102440.38;;;9.68;100.00
15308;BME280;7755;52.208;6.964;2022-11-11T05:55:06;102425.72;;;9.62;100.00
15308;BME280;7755;52.208;6.964;2022-11-11T05:59:29;102416.06;;;9.60;100.00
15308;BME280;7755;52.208;6.964;2022-11-11T06:03:49;102411.41;;;9.53;100.00
15308;BME280;7755;52.208;6.964;2022-11-11T06:08:10;102428.28;;;9.49;100.00
15308;BME280;7755;52.208;6.964;2022-11-11T06:12:30;102445.84;;;9.53;100.00
15308;BME280;7755;52.208;6.964;2022-11-11T06:17:12;102453.56;;;9.49;100.00
15308;BME280;7755;52.208;6.964;2022-11-11T06:21:33;102462.63;;;9.56;100.00
15308;BME280;7755;52.208;6.964;2022-11-11T06:26:14;102471.59;;;9.57;100.00
15308;BME280;7755;52.208;6.964;2022-11-11T06:30:35;102496.41;;;9.54;100.00
15308;BME280;7755;52.208;6.964;2022-11-11T06:35:03;102492.84;;;9.53;100.00
15308;BME280;7755;52.208;6.964;2022-11-11T06:39:24;102486.13;;;9.49;100.00
15308;BME280;7755;52.208;6.964;2022-11-11T06:43:44;102499.81;;;9.56;100.00
15308;BME280;7755;52.208;6.964;2022-11-11T06:48:05;102500.72;;;9.63;100.00
15308;BME280;7755;52.208;6.964;2022-11-11T06:52:27;102514.84;;;9.58;100.00
15308;BME280;7755;52.208;6.964;2022-11-11T06:56:48;102509.72;;;9.49;100.00
15308;BME280;7755;52.208;6.964;2022-11-11T07:01:09;102527.72;;;9.50;100.00
15308;BME280;7755;52.208;6.964;2022-11-11T07:05:31;102533.78;;;9.52;100.00
15308;BME280;7755;52.208;6.964;2022-11-11T07:09:53;102536.69;;;9.50;100.00
15308;BME280;7755;52.208;6.964;2022-11-11T07:14:14;102539.13;;;9.45;100.00
15308;BME280;7755;52.208;6.964;2022-11-11T07:18:35;102535.75;;;9.43;100.00
15308;BME280;7755;52.208;6.964;2022-11-11T07:22:55;102535.94;;;9.42;100.00
15308;BME280;7755;52.208;6.964;2022-11-11T07:27:17;102539.66;;;9.41;100.00
15308;BME280;7755;52.208;6.964;2022-11-11T07:31:38;102538.75;;;9.34;100.00
15308;BME280;7755;52.208;6.964;2022-11-11T07:36:01;102533.06;;;9.28;100.00
15308;BME280;7755;52.208;6.964;2022-11-11T07:40:22;102535.94;;;9.27;100.00
15308;BME280;7755;52.208;6.964;2022-11-11T07:44:44;102536.78;;;9.27;100.00
15308;BME280;7755;52.208;6.964;2022-11-11T07:49:05;102545.09;;;9.26;100.00
15308;BME280;7755;52.208;6.964;2022-11-11T07:53:25;102553.25;;;9.26;100.00
15308;BME280;7755;52.208;6.964;2022-11-11T07:57:46;102555.59;;;9.29;100.00
15308;BME280;7755;52.208;6.964;2022-11-11T08:02:09;102568.16;;;9.30;100.00
15308;BME280;7755;52.208;6.964;2022-11-11T08:06:29;102574.59;;;9.29;100.00
15308;BME280;7755;52.208;6.964;2022-11-11T08:10:52;102574.59;;;9.29;100.00
15308;BME280;7755;52.208;6.964;2022-11-11T08:15:13;102572.72;;;9.29;100.00
15308;BME280;7755;52.208;6.964;2022-11-11T08:19:35;102562.91;;;9.28;100.00
15308;BME280;7755;52.208;6.964;2022-11-11T08:23:55;102560.09;;;9.37;100.00
15308;BME280;7755;52.208;6.964;2022-11-11T08:28:16;102570.56;;;9.40;100.00
15308;BME280;7755;52.208;6.964;2022-11-11T08:32:37;102564.59;;;9.44;100.00
15308;BME280;7755;52.208;6.964;2022-11-11T08:36:59;102561.31;;;9.49;100.00
15308;BME280;7755;52.208;6.964;2022-11-11T08:41:20;102571.03;;;9.58;100.00
15308;BME280;7755;52.208;6.964;2022-11-11T08:45:42;102560.72;;;9.68;100.00
15308;BME280;7755;52.208;6.964;2022-11-11T08:50:03;102565.41;;;9.74;100.00
15308;BME280;7755;52.208;6.964;2022-11-11T08:54:25;102560.44;;;9.78;100.00
15308;BME280;7755;52.208;6.964;2022-11-11T08:58:45;102578.72;;;9.84;100.00
15308;BME280;7755;52.208;6.964;2022-11-11T09:03:08;102578.13;;;9.89;100.00
15308;BME280;7755;52.208;6.964;2022-11-11T09:07:29;102582.16;;;9.93;100.00
15308;BME280;7755;52.208;6.964;2022-11-11T09:11:51;102591.63;;;9.97;100.00
15308;BME280;7755;52.208;6.964;2022-11-11T09:16:12;102595.06;;;10.05;100.00
15308;BME280;7755;52.208;6.964;2022-11-11T09:20:32;102593.47;;;10.11;100.00
15308;BME280;7755;52.208;6.964;2022-11-11T09:24:53;102592.69;;;10.17;100.00
15308;BME280;7755;52.208;6.964;2022-11-11T09:29:17;102599.81;;;10.18;100.00
15308;BME280;7755;52.208;6.964;2022-11-11T09:33:38;102607.03;;;10.26;100.00
15308;BME280;7755;52.208;6.964;2022-11-11T09:38:00;102606.63;;;10.29;100.00
15308;BME280;7755;52.208;6.964;2022-11-11T09:42:31;102610.94;;;10.38;100.00
15308;BME280;7755;52.208;6.964;2022-11-11T09:47:02;102613.94;;;10.43;100.00
15308;BME280;7755;52.208;6.964;2022-11-11T09:51:27;102620.28;;;10.50;100.00
15308;BME280;7755;52.208;6.964;2022-11-11T09:55:54;102623.44;;;10.54;100.00
15308;BME280;7755;52.208;6.964;2022-11-11T10:00:20;102625.19;;;10.61;100.00
15308;BME280;7755;52.208;6.964;2022-11-11T10:04:48;102629.66;;;10.69;100.00
15308;BME280;7755;52.208;6.964;2022-11-11T10:09:17;102621.41;;;10.77;100.00
15308;BME280;7755;52.208;6.964;2022-11-11T10:13:41;102627.91;;;10.83;100.00
15308;BME280;7755;52.208;6.964;2022-11-11T10:18:20;102623.19;;;10.91;100.00
15308;BME280;7755;52.208;6.964;2022-11-11T10:22:47;102620.91;;;10.95;100.00
15308;BME280;7755;52.208;6.964;2022-11-11T10:27:14;102622.03;;;11.01;100.00
15308;BME280;7755;52.208;6.964;2022-11-11T10:31:36;102634.59;;;11.02;100.00
15308;BME280;7755;52.208;6.964;2022-11-11T10:36:00;102624.22;;;11.12;100.00
15308;BME280;7755;52.208;6.964;2022-11-11T10:40:28;102626.78;;;11.20;100.00
15308;BME280;7755;52.208;6.964;2022-11-11T10:44:50;102615.53;;;11.30;100.00
15308;BME280;7755;52.208;6.964;2022-11-11T10:49:17;102610.81;;;11.38;100.00
15308;BME280;7755;52.208;6.964;2022-11-11T10:53:43;102614.44;;;11.52;100.00
15308;BME280;7755;52.208;6.964;2022-11-11T10:58:15;102614.72;;;11.64;100.00
15308;BME280;7755;52.208;6.964;2022-11-11T11:02:41;102620.22;;;11.77;100.00
15308;BME280;7755;52.208;6.964;2022-11-11T11:07:07;102606.28;;;11.87;100.00
15308;BME280;7755;52.208;6.964;2022-11-11T11:11:34;102612.41;;;11.95;100.00
15308;BME280;7755;52.208;6.964;2022-11-11T11:16:07;102609.72;;;12.02;100.00
15308;BME280;7755;52.208;6.964;2022-11-11T11:20:32;102605.13;;;12.09;99.55
15308;BME280;7755;52.208;6.964;2022-11-11T11:25:08;102595.69;;;12.18;99.47
15308;BME280;7755;52.208;6.964;2022-11-11T11:29:32;102601.19;;;12.25;99.62
15308;BME280;7755;52.208;6.964;2022-11-11T11:33:55;102601.44;;;12.37;98.76
15308;BME280;7755;52.208;6.964;2022-11-11T11:38:15;102601.06;;;12.46;99.05
15308;BME280;7755;52.208;6.964;2022-11-11T11:42:38;102601.47;;;12.56;98.50
15308;BME280;7755;52.208;6.964;2022-11-11T11:47:06;102602.31;;;12.64;97.81
15308;BME280;7755;52.208;6.964;2022-11-11T11:51:36;102607.38;;;12.73;96.70
15308;BME280;7755;52.208;6.964;2022-11-11T11:56:08;102598.16;;;12.81;96.87
15308;BME280;7755;52.208;6.964;2022-11-11T12:00:39;102599.63;;;12.90;95.94
15308;BME280;7755;52.208;6.964;2022-11-11T12:05:18;102597.28;;;12.94;95.31
15308;BME280;7755;52.208;6.964;2022-11-11T12:09:55;102591.66;;;13.02;93.65
15308;BME280;7755;52.208;6.964;2022-11-11T12:14:38;102582.63;;;13.01;94.19
15308;BME280;7755;52.208;6.964;2022-11-11T12:19:24;102588.47;;;13.11;93.38
15308;BME280;7755;52.208;6.964;2022-11-11T12:23:56;102586.00;;;13.23;93.77
15308;BME280;7755;52.208;6.964;2022-11-11T12:28:28;102579.47;;;13.31;92.08
15308;BME280;7755;52.208;6.964;2022-11-11T12:38:12;102570.00;;;13.33;87.76
15308;BME280;7755;52.208;6.964;2022-11-11T12:42:52;102566.22;;;13.34;86.65
15308;BME280;7755;52.208;6.964;2022-11-11T12:47:26;102560.94;;;13.39;87.98
15308;BME280;7755;52.208;6.964;2022-11-11T12:51:55;102560.50;;;13.49;86.33
15308;BME280;7755;52.208;6.964;2022-11-11T12:56:24;102562.16;;;13.57;85.88
15308;BME280;7755;52.208;6.964;2022-11-11T13:00:57;102555.84;;;13.63;85.17
15308;BME280;7755;52.208;6.964;2022-11-11T13:05:26;102543.84;;;13.64;84.90
15308;BME280;7755;52.208;6.964;2022-11-11T13:10:02;102553.13;;;13.63;83.88
15308;BME280;7755;52.208;6.964;2022-11-11T13:14:39;102565.47;;;13.72;84.24
15308;BME280;7755;52.208;6.964;2022-11-11T13:19:09;102563.34;;;13.74;84.58
15308;BME280;7755;52.208;6.964;2022-11-11T13:23:32;102552.00;;;13.77;84.00
15308;BME280;7755;52.208;6.964;2022-11-11T13:27:57;102563.13;;;13.82;83.65
15308;BME280;7755;52.208;6.964;2022-11-11T13:32:25;102569.00;;;13.86;83.25
15308;BME280;7755;52.208;6.964;2022-11-11T13:36:52;102570.03;;;13.91;83.68
15308;BME280;7755;52.208;6.964;2022-11-11T13:41:23;102567.88;;;14.00;83.08
15308;BME280;7755;52.208;6.964;2022-11-11T13:45:50;102564.91;;;14.02;82.85
15308;BME280;7755;52.208;6.964;2022-11-11T13:50:14;102567.47;;;14.03;82.05
15308;BME280;7755;52.208;6.964;2022-11-11T13:54:47;102569.56;;;14.01;81.86
15308;BME280;7755;52.208;6.964;2022-11-11T13:59:20;102567.06;;;13.93;81.53
15308;BME280;7755;52.208;6.964;2022-11-11T14:04:06;102576.78;;;13.89;82.29
15308;BME280;7755;52.208;6.964;2022-11-11T14:08:50;102584.13;;;13.88;82.31
15308;BME280;7755;52.208;6.964;2022-11-11T14:13:35;102575.06;;;13.88;83.00
15308;BME280;7755;52.208;6.964;2022-11-11T14:17:57;102583.47;;;13.93;83.42
15308;BME280;7755;52.208;6.964;2022-11-11T14:22:28;102585.38;;;13.92;82.86
15308;BME280;7755;52.208;6.964;2022-11-11T14:26:57;102587.91;;;13.87;83.20
15308;BME280;7755;52.208;6.964;2022-11-11T14:36:22;102589.22;;;13.78;83.74
15308;BME280;7755;52.208;6.964;2022-11-11T14:40:46;102602.06;;;13.71;83.90
15308;BME280;7755;52.208;6.964;2022-11-11T14:50:43;102609.28;;;13.46;83.95
15308;BME280;7755;52.208;6.964;2022-11-11T14:55:18;102601.09;;;13.39;84.21
15308;BME280;7755;52.208;6.964;2022-11-11T14:59:41;102602.16;;;13.31;84.26
15308;BME280;7755;52.208;6.964;2022-11-11T15:04:03;102599.19;;;13.20;85.07
15308;BME280;7755;52.208;6.964;2022-11-11T15:08:31;102600.69;;;13.16;85.73
15308;BME280;7755;52.208;6.964;2022-11-11T15:13:20;102610.94;;;13.07;86.26
15308;BME280;7755;52.208;6.964;2022-11-11T15:17:53;102612.84;;;13.00;86.75
15308;BME280;7755;52.208;6.964;2022-11-11T15:22:31;102604.47;;;12.95;87.06
15308;BME280;7755;52.208;6.964;2022-11-11T15:27:05;102605.69;;;12.85;87.41
15308;BME280;7755;52.208;6.964;2022-11-11T15:31:34;102608.84;;;12.76;87.59
15308;BME280;7755;52.208;6.964;2022-11-11T15:36:04;102610.75;;;12.69;88.02
15308;BME280;7755;52.208;6.964;2022-11-11T15:40:31;102618.28;;;12.60;88.75
15308;BME280;7755;52.208;6.964;2022-11-11T15:45:13;102619.28;;;12.52;89.09
15308;BME280;7755;52.208;6.964;2022-11-11T15:49:42;102623.69;;;12.40;89.88
15308;BME280;7755;52.208;6.964;2022-11-11T15:54:17;102618.38;;;12.25;90.52
15308;BME280;7755;52.208;6.964;2022-11-11T15:58:40;102624.84;;;12.11;90.64
15308;BME280;7755;52.208;6.964;2022-11-11T16:03:03;102625.81;;;11.97;91.35
15308;BME280;7755;52.208;6.964;2022-11-11T16:07:29;102631.97;;;11.77;92.21
15308;BME280;7755;52.208;6.964;2022-11-11T16:11:52;102632.75;;;11.65;93.03
15308;BME280;7755;52.208;6.964;2022-11-11T16:16:18;102628.91;;;11.53;94.10
15308;BME280;7755;52.208;6.964;2022-11-11T16:20:45;102632.63;;;11.45;94.52
15308;BME280;7755;52.208;6.964;2022-11-11T16:25:16;102635.25;;;11.32;95.54
15308;BME280;7755;52.208;6.964;2022-11-11T16:29:39;102646.09;;;11.25;95.88
15308;BME280;7755;52.208;6.964;2022-11-11T16:34:29;102643.31;;;11.18;96.55
15308;BME280;7755;52.208;6.964;2022-11-11T16:38:51;102643.44;;;11.10;97.16
15308;BME280;7755;52.208;6.964;2022-11-11T16:43:20;102639.66;;;11.05;97.72
15308;BME280;7755;52.208;6.964;2022-11-11T16:47:47;102643.59;;;11.02;98.22
15308;BME280;7755;52.208;6.964;2022-11-11T16:52:11;102644.19;;;10.98;98.58
15308;BME280;7755;52.208;6.964;2022-11-11T16:56:34;102647.09;;;10.96;98.72
15308;BME280;7755;52.208;6.964;2022-11-11T17:00:59;102640.31;;;10.85;99.45
15308;BME280;7755;52.208;6.964;2022-11-11T17:05:50;102647.56;;;10.78;100.00
15308;BME280;7755;52.208;6.964;2022-11-11T17:10:15;102650.47;;;10.77;100.00
15308;BME280;7755;52.208;6.964;2022-11-11T17:14:37;102649.81;;;10.75;100.00
15308;BME280;7755;52.208;6.964;2022-11-11T17:19:01;102654.63;;;10.73;100.00
15308;BME280;7755;52.208;6.964;2022-11-11T17:23:22;102650.38;;;10.70;100.00
15308;BME280;7755;52.208;6.964;2022-11-11T17:27:53;102644.72;;;10.65;100.00
15308;BME280;7755;52.208;6.964;2022-11-11T17:32:14;102642.56;;;10.60;100.00
15308;BME280;7755;52.208;6.964;2022-11-11T17:36:35;102645.84;;;10.56;100.00
15308;BME280;7755;52.208;6.964;2022-11-11T17:40:56;102636.78;;;10.49;100.00
15308;BME280;7755;52.208;6.964;2022-11-11T17:45:17;102635.50;;;10.45;100.00
15308;BME280;7755;52.208;6.964;2022-11-11T17:49:38;102641.69;;;10.38;100.00
15308;BME280;7755;52.208;6.964;2022-11-11T17:54:01;102648.19;;;10.37;100.00
15308;BME280;7755;52.208;6.964;2022-11-11T17:58:21;102643.50;;;10.31;100.00
15308;BME280;7755;52.208;6.964;2022-11-11T18:02:42;102651.84;;;10.30;100.00
15308;BME280;7755;52.208;6.964;2022-11-11T18:07:03;102648.00;;;10.24;100.00
15308;BME280;7755;52.208;6.964;2022-11-11T18:11:25;102644.16;;;10.19;100.00
15308;BME280;7755;52.208;6.964;2022-11-11T18:15:46;102637.59;;;10.13;100.00
15308;BME280;7755;52.208;6.964;2022-11-11T18:20:08;102635.44;;;10.08;100.00
15308;BME280;7755;52.208;6.964;2022-11-11T18:24:29;102646.06;;;10.03;100.00
15308;BME280;7755;52.208;6.964;2022-11-11T18:28:52;102648.28;;;10.00;100.00
15308;BME280;7755;52.208;6.964;2022-11-11T18:33:13;102659.06;;;9.93;100.00
15308;BME280;7755;52.208;6.964;2022-11-11T18:37:34;102666.94;;;9.88;100.00
15308;BME280;7755;52.208;6.964;2022-11-11T18:41:55;102660.41;;;9.82;100.00
15308;BME280;7755;52.208;6.964;2022-11-11T18:46:19;102654.47;;;9.79;100.00
15308;BME280;7755;52.208;6.964;2022-11-11T18:50:39;102650.28;;;9.76;100.00
15308;BME280;7755;52.208;6.964;2022-11-11T18:55:00;102654.88;;;9.76;100.00
15308;BME280;7755;52.208;6.964;2022-11-11T18:59:22;102653.53;;;9.72;100.00
15308;BME280;7755;52.208;6.964;2022-11-11T19:03:44;102652.06;;;9.69;100.00
15308;BME280;7755;52.208;6.964;2022-11-11T19:08:04;102651.78;;;9.64;100.00
15308;BME280;7755;52.208;6.964;2022-11-11T19:12:25;102647.72;;;9.60;100.00
15308;BME280;7755;52.208;6.964;2022-11-11T19:16:47;102648.47;;;9.54;100.00
15308;BME280;7755;52.208;6.964;2022-11-11T19:21:10;102660.06;;;9.48;100.00
15308;BME280;7755;52.208;6.964;2022-11-11T19:25:33;102658.47;;;9.39;100.00
15308;BME280;7755;52.208;6.964;2022-11-11T19:29:54;102661.09;;;9.32;100.00
15308;BME280;7755;52.208;6.964;2022-11-11T19:34:15;102669.59;;;9.29;100.00
15308;BME280;7755;52.208;6.964;2022-11-11T19:38:37;102674.09;;;9.22;100.00
15308;BME280;7755;52.208;6.964;2022-11-11T19:42:58;102672.75;;;9.18;100.00
15308;BME280;7755;52.208;6.964;2022-11-11T19:47:24;102672.63;;;9.11;100.00
15308;BME280;7755;52.208;6.964;2022-11-11T19:51:51;102681.31;;;9.07;100.00
15308;BME280;7755;52.208;6.964;2022-11-11T19:56:16;102681.03;;;9.01;100.00
15308;BME280;7755;52.208;6.964;2022-11-11T20:00:38;102683.25;;;8.98;100.00
15308;BME280;7755;52.208;6.964;2022-11-11T20:04:58;102683.78;;;8.93;100.00
15308;BME280;7755;52.208;6.964;2022-11-11T20:09:19;102694.38;;;8.88;100.00
15308;BME280;7755;52.208;6.964;2022-11-11T20:13:41;102690.13;;;8.86;100.00
15308;BME280;7755;52.208;6.964;2022-11-11T20:18:01;102693.41;;;8.81;100.00
15308;BME280;7755;52.208;6.964;2022-11-11T20:22:29;102713.75;;;8.77;100.00
15308;BME280;7755;52.208;6.964;2022-11-11T20:27:10;102709.69;;;8.73;100.00
15308;BME280;7755;52.208;6.964;2022-11-11T20:31:33;102711.09;;;8.69;100.00
15308;BME280;7755;52.208;6.964;2022-11-11T20:35:54;102714.69;;;8.61;100.00
15308;BME280;7755;52.208;6.964;2022-11-11T20:40:30;102720.31;;;8.52;100.00
15308;BME280;7755;52.208;6.964;2022-11-11T20:44:56;102713.59;;;8.47;100.00
15308;BME280;7755;52.208;6.964;2022-11-11T20:49:18;102725.63;;;8.45;100.00
15308;BME280;7755;52.208;6.964;2022-11-11T20:53:39;102728.00;;;8.40;100.00
15308;BME280;7755;52.208;6.964;2022-11-11T20:58:01;102726.50;;;8.37;100.00
15308;BME280;7755;52.208;6.964;2022-11-11T21:02:22;102724.28;;;8.33;100.00
15308;BME280;7755;52.208;6.964;2022-11-11T21:06:44;102724.13;;;8.26;100.00
15308;BME280;7755;52.208;6.964;2022-11-11T21:11:06;102725.34;;;8.24;100.00
15308;BME280;7755;52.208;6.964;2022-11-11T21:15:27;102722.16;;;8.20;100.00
15308;BME280;7755;52.208;6.964;2022-11-11T21:19:48;102713.69;;;8.15;100.00
15308;BME280;7755;52.208;6.964;2022-11-11T21:24:10;102719.44;;;8.12;100.00
15308;BME280;7755;52.208;6.964;2022-11-11T21:28:31;102720.84;;;8.08;100.00
15308;BME280;7755;52.208;6.964;2022-11-11T21:33:15;102717.78;;;8.03;100.00
15308;BME280;7755;52.208;6.964;2022-11-11T21:38:03;102722.03;;;7.97;100.00
15308;BME280;7755;52.208;6.964;2022-11-11T21:42:44;102731.88;;;7.90;100.00
15308;BME280;7755;52.208;6.964;2022-11-11T21:47:06;102724.25;;;7.85;100.00
15308;BME280;7755;52.208;6.964;2022-11-11T21:51:27;102725.81;;;7.80;100.00
15308;BME280;7755;52.208;6.964;2022-11-11T21:55:48;102725.31;;;7.76;100.00
15308;BME280;7755;52.208;6.964;2022-11-11T22:00:12;102720.41;;;7.72;100.00
15308;BME280;7755;52.208;6.964;2022-11-11T22:04:32;102720.41;;;7.63;100.00
15308;BME280;7755;52.208;6.964;2022-11-11T22:08:56;102725.34;;;7.60;100.00
15308;BME280;7755;52.208;6.964;2022-11-11T22:13:17;102726.69;;;7.56;100.00
15308;BME280;7755;52.208;6.964;2022-11-11T22:17:39;102719.06;;;7.51;100.00
15308;BME280;7755;52.208;6.964;2022-11-11T22:22:02;102729.41;;;7.48;100.00
15308;BME280;7755;52.208;6.964;2022-11-11T22:26:25;102733.97;;;7.47;100.00
15308;BME280;7755;52.208;6.964;2022-11-11T22:30:47;102742.78;;;7.41;100.00
15308;BME280;7755;52.208;6.964;2022-11-11T22:35:08;102736.84;;;7.37;100.00
15308;BME280;7755;52.208;6.964;2022-11-11T22:39:29;102731.97;;;7.33;100.00
15308;BME280;7755;52.208;6.964;2022-11-11T22:43:50;102742.25;;;7.29;100.00
15308;BME280;7755;52.208;6.964;2022-11-11T22:48:11;102739.22;;;7.24;100.00
15308;BME280;7755;52.208;6.964;2022-11-11T22:52:34;102749.53;;;7.21;100.00
15308;BME280;7755;52.208;6.964;2022-11-11T22:56:54;102762.88;;;7.14;100.00
15308;BME280;7755;52.208;6.964;2022-11-11T23:01:17;102761.50;;;7.10;100.00
15308;BME280;7755;52.208;6.964;2022-11-11T23:05:40;102765.41;;;7.07;100.00
15308;BME280;7755;52.208;6.964;2022-11-11T23:10:03;102764.56;;;7.07;100.00
15308;BME280;7755;52.208;6.964;2022-11-11T23:14:24;102773.00;;;7.04;100.00
15308;BME280;7755;52.208;6.964;2022-11-11T23:18:45;102769.78;;;7.00;100.00
15308;BME280;7755;52.208;6.964;2022-11-11T23:23:06;102766.72;;;6.95;100.00
15308;BME280;7755;52.208;6.964;2022-11-11T23:27:28;102769.78;;;6.92;100.00
15308;BME280;7755;52.208;6.964;2022-11-11T23:31:49;102781.63;;;6.91;100.00
15308;BME280;7755;52.208;6.964;2022-11-11T23:36:11;102775.69;;;6.88;100.00